createdAt,value
2018-06-04T00:00:07.720Z,17.60
2018-06-04T00:02:36.022Z,17.60
2018-06-04T00:05:04.663Z,17.60
2018-06-04T00:07:32.988Z,17.50
2018-06-04T00:10:01.317Z,17.60
2018-06-04T00:12:29.652Z,17.60
2018-06-04T00:14:57.961Z,17.70
2018-06-04T00:17:26.284Z,17.80
2018-06-04T00:19:54.604Z,17.80
2018-06-04T00:22:22.938Z,17.80
2018-06-04T00:24:51.237Z,17.70
2018-06-04T00:27:19.590Z,17.60
2018-06-04T00:29:47.888Z,17.50
2018-06-04T00:32:16.259Z,17.50
2018-06-04T00:34:44.538Z,17.40
2018-06-04T00:37:12.856Z,17.40
2018-06-04T00:39:41.168Z,17.40
2018-06-04T00:42:09.486Z,17.40
2018-06-04T00:44:37.808Z,17.40
2018-06-04T00:47:06.129Z,17.30
2018-06-04T00:49:34.428Z,17.10
2018-06-04T00:52:02.737Z,16.80
2018-06-04T00:54:31.048Z,16.70
2018-06-04T00:56:59.352Z,16.70
2018-06-04T00:59:27.672Z,16.60
2018-06-04T01:01:55.976Z,16.50
2018-06-04T01:04:24.296Z,16.50
2018-06-04T01:06:52.626Z,16.40
2018-06-04T01:09:20.956Z,16.40
2018-06-04T01:11:49.272Z,16.50
2018-06-04T01:14:17.597Z,16.50
2018-06-04T01:16:45.916Z,16.50
2018-06-04T01:19:14.251Z,16.50
2018-06-04T01:21:42.560Z,16.50
2018-06-04T01:24:10.868Z,16.40
2018-06-04T01:26:39.189Z,16.40
2018-06-04T01:29:07.504Z,16.30
2018-06-04T01:31:35.844Z,16.30
2018-06-04T01:34:04.173Z,16.30
2018-06-04T01:36:32.480Z,16.20
2018-06-04T01:39:00.797Z,16.20
2018-06-04T01:41:29.128Z,16.10
2018-06-04T01:43:57.432Z,16.10
2018-06-04T01:46:25.788Z,16.00
2018-06-04T01:48:54.100Z,15.90
2018-06-04T01:51:22.432Z,15.80
2018-06-04T01:53:50.731Z,15.60
2018-06-04T01:56:19.060Z,15.50
2018-06-04T01:58:47.370Z,15.50
2018-06-04T02:01:15.674Z,15.60
2018-06-04T02:03:44.025Z,15.60
2018-06-04T02:06:12.344Z,15.60
2018-06-04T02:08:40.941Z,15.60
2018-06-04T02:11:09.259Z,15.60
2018-06-04T02:13:37.628Z,15.60
2018-06-04T02:16:05.965Z,15.50
2018-06-04T02:18:34.292Z,15.40
2018-06-04T02:21:02.596Z,15.20
2018-06-04T02:23:30.916Z,15.10
2018-06-04T02:25:59.220Z,15.10
2018-06-04T02:28:27.604Z,15.20
2018-06-04T02:30:55.921Z,15.40
2018-06-04T02:33:24.256Z,15.50
2018-06-04T02:35:52.554Z,15.80
2018-06-04T02:38:20.853Z,15.90
2018-06-04T02:40:49.180Z,16.00
2018-06-04T02:43:17.508Z,16.10
2018-06-04T02:45:45.831Z,16.10
2018-06-04T02:48:14.128Z,16.10
2018-06-04T02:50:42.444Z,16.20
2018-06-04T02:53:10.757Z,16.10
2018-06-04T02:55:39.080Z,16.00
2018-06-04T02:58:07.390Z,16.00
2018-06-04T03:00:35.696Z,16.00
2018-06-04T03:03:04.009Z,16.00
2018-06-04T03:05:32.333Z,15.90
2018-06-04T03:08:00.641Z,15.90
2018-06-04T03:10:28.940Z,15.80
2018-06-04T03:12:57.318Z,15.80
2018-06-04T03:15:25.569Z,15.80
2018-06-04T03:17:53.893Z,15.80
2018-06-04T03:20:22.220Z,15.80
2018-06-04T03:22:50.604Z,15.70
2018-06-04T03:25:18.917Z,15.70
2018-06-04T03:27:47.245Z,15.60
2018-06-04T03:30:15.561Z,15.60
2018-06-04T03:32:43.897Z,15.60
2018-06-04T03:35:12.200Z,15.50
2018-06-04T03:37:40.516Z,15.60
2018-06-04T03:40:08.832Z,15.80
2018-06-04T03:42:37.161Z,15.80
2018-06-04T03:45:05.916Z,15.90
2018-06-04T03:47:34.228Z,15.90
2018-06-04T03:50:02.548Z,15.90
2018-06-04T03:52:30.845Z,15.90
2018-06-04T03:54:59.188Z,15.90
2018-06-04T03:57:27.515Z,15.90
2018-06-04T03:59:55.834Z,16.00
2018-06-04T04:02:24.140Z,16.00
2018-06-04T04:04:52.472Z,15.90
2018-06-04T04:07:20.796Z,16.00
2018-06-04T04:09:49.124Z,16.10
2018-06-04T04:12:17.456Z,16.00
2018-06-04T04:14:45.784Z,16.10
2018-06-04T04:17:14.075Z,16.10
2018-06-04T04:19:42.396Z,16.20
2018-06-04T04:22:10.709Z,16.20
2018-06-04T04:24:39.029Z,16.20
2018-06-04T04:27:07.352Z,16.20
2018-06-04T04:29:35.656Z,16.30
2018-06-04T04:32:03.978Z,16.30
2018-06-04T04:34:32.329Z,16.30
2018-06-04T04:37:00.640Z,16.20
2018-06-04T04:39:28.947Z,16.00
2018-06-04T04:41:57.293Z,16.00
2018-06-04T04:44:25.607Z,16.00
2018-06-04T04:46:53.941Z,16.10
2018-06-04T04:49:22.269Z,16.10
2018-06-04T04:51:50.656Z,16.10
2018-06-04T04:54:18.995Z,16.10
2018-06-04T04:56:47.369Z,16.10
2018-06-04T04:59:15.696Z,16.20
2018-06-04T05:01:44.008Z,16.40
2018-06-04T05:04:13.036Z,16.50
2018-06-04T05:06:41.345Z,16.50
2018-06-04T05:09:09.696Z,16.60
2018-06-04T05:11:38.061Z,16.70
2018-06-04T05:14:06.384Z,16.70
2018-06-04T05:16:34.716Z,16.80
2018-06-04T05:19:03.033Z,16.90
2018-06-04T05:21:31.982Z,17.00
2018-06-04T05:24:00.936Z,17.10
2018-06-04T05:26:29.741Z,17.10
2018-06-04T05:28:58.045Z,17.20
2018-06-04T05:31:26.397Z,17.30
2018-06-04T05:33:54.693Z,17.40
2018-06-04T05:36:23.021Z,17.40
2018-06-04T05:38:51.380Z,17.40
2018-06-04T05:41:19.721Z,17.40
2018-06-04T05:43:48.044Z,17.40
2018-06-04T05:46:16.408Z,17.50
2018-06-04T05:48:44.772Z,17.60
2018-06-04T05:51:13.095Z,17.70
2018-06-04T05:53:41.428Z,17.80
2018-06-04T05:56:09.792Z,17.90
2018-06-04T05:58:38.088Z,18.00
2018-06-04T06:01:06.463Z,18.10
2018-06-04T06:03:34.765Z,18.30
2018-06-04T06:06:03.140Z,18.30
2018-06-04T06:08:31.461Z,18.40
2018-06-04T06:10:59.774Z,18.40
2018-06-04T06:13:28.104Z,18.50
2018-06-04T06:15:56.412Z,18.60
2018-06-04T06:18:24.729Z,18.70
2018-06-04T06:20:53.168Z,18.70
2018-06-04T06:23:21.870Z,18.70
2018-06-04T06:25:50.896Z,18.90
2018-06-04T06:28:19.308Z,18.90
2018-06-04T06:30:47.719Z,18.90
2018-06-04T06:33:16.352Z,19.00
2018-06-04T06:35:44.708Z,19.10
2018-06-04T06:38:13.036Z,19.20
2018-06-04T06:40:41.325Z,19.30
2018-06-04T06:43:10.620Z,19.30
2018-06-04T06:45:38.976Z,19.50
2018-06-04T06:48:07.343Z,19.60
2018-06-04T06:50:35.680Z,19.70
2018-06-04T06:53:04.024Z,19.70
2018-06-04T06:55:32.342Z,19.80
2018-06-04T06:58:00.708Z,20.00
2018-06-04T07:00:29.051Z,20.10
2018-06-04T07:02:57.365Z,20.20
2018-06-04T07:05:25.812Z,20.30
2018-06-04T07:07:54.160Z,20.40
2018-06-04T07:10:23.331Z,20.50
2018-06-04T07:12:51.653Z,20.60
2018-06-04T07:15:20.016Z,20.70
2018-06-04T07:17:48.329Z,20.80
2018-06-04T07:20:16.680Z,20.80
2018-06-04T07:22:45.001Z,20.80
2018-06-04T07:25:13.309Z,20.90
2018-06-04T07:27:41.708Z,21.10
2018-06-04T07:30:10.020Z,21.10
2018-06-04T07:32:38.376Z,21.10
2018-06-04T07:35:06.783Z,21.10
2018-06-04T07:37:35.170Z,21.30
2018-06-04T07:40:03.763Z,21.30
2018-06-04T07:42:32.695Z,21.40
2018-06-04T07:45:01.256Z,21.40
2018-06-04T07:47:32.748Z,21.40
2018-06-04T07:50:01.581Z,21.40
2018-06-04T07:52:30.028Z,21.50
2018-06-04T07:54:58.357Z,21.60
2018-06-04T07:57:26.860Z,21.50
2018-06-04T07:59:55.192Z,21.70
2018-06-04T08:02:23.496Z,21.80
2018-06-04T08:04:51.808Z,21.90
2018-06-04T08:07:20.237Z,21.90
2018-06-04T08:09:48.705Z,22.10
2018-06-04T08:12:17.016Z,22.30
2018-06-04T08:14:45.324Z,22.50
2018-06-04T08:17:13.637Z,22.40
2018-06-04T08:19:41.949Z,22.50
2018-06-04T08:22:10.256Z,22.40
2018-06-04T08:24:38.638Z,22.40
2018-06-04T08:27:06.952Z,22.40
2018-06-04T08:29:35.248Z,22.70
2018-06-04T08:32:03.617Z,22.70
2018-06-04T08:34:31.925Z,22.90
2018-06-04T08:37:00.239Z,23.00
2018-06-04T08:39:28.560Z,23.10
2018-06-04T08:41:56.886Z,23.30
2018-06-04T08:44:25.188Z,23.40
2018-06-04T08:46:53.520Z,23.50
2018-06-04T08:49:21.820Z,23.50
2018-06-04T08:51:50.159Z,23.50
2018-06-04T08:54:19.194Z,23.60
2018-06-04T08:56:47.520Z,23.70
2018-06-04T08:59:15.820Z,23.90
2018-06-04T09:01:44.162Z,24.10
2018-06-04T09:04:12.482Z,24.20
2018-06-04T09:06:40.785Z,24.30
2018-06-04T09:09:09.667Z,24.30
2018-06-04T09:11:38.308Z,24.40
2018-06-04T09:14:06.800Z,24.50
2018-06-04T09:16:35.108Z,24.60
2018-06-04T09:19:03.444Z,24.70
2018-06-04T09:21:31.761Z,24.80
2018-06-04T09:24:00.076Z,24.70
2018-06-04T09:26:28.388Z,24.90
2018-06-04T09:28:56.683Z,24.80
2018-06-04T09:31:25.030Z,24.90
2018-06-04T09:33:53.341Z,25.20
2018-06-04T09:36:21.648Z,25.30
2018-06-04T09:38:50.357Z,25.20
2018-06-04T09:41:18.678Z,25.20
2018-06-04T09:43:47.124Z,25.40
2018-06-04T09:46:15.514Z,25.30
2018-06-04T09:48:43.817Z,25.20
2018-06-04T09:51:12.163Z,25.40
2018-06-04T09:53:41.124Z,25.30
2018-06-04T09:56:09.437Z,25.00
2018-06-04T09:58:37.776Z,24.70
2018-06-04T10:01:06.121Z,24.60
2018-06-04T10:03:34.425Z,24.80
2018-06-04T10:06:02.797Z,24.90
2018-06-04T10:08:31.125Z,24.90
2018-06-04T10:10:59.432Z,25.10
2018-06-04T10:13:27.745Z,25.30
2018-06-04T10:15:56.052Z,25.40
2018-06-04T10:18:24.361Z,25.60
2018-06-04T10:20:52.679Z,25.70
2018-06-04T10:23:20.976Z,25.90
2018-06-04T10:25:49.311Z,26.20
2018-06-04T10:28:17.621Z,26.20
2018-06-04T10:30:45.926Z,26.20
2018-06-04T10:33:14.225Z,26.30
2018-06-04T10:35:42.560Z,26.70
2018-06-04T10:38:10.868Z,26.70
2018-06-04T10:40:39.178Z,26.80
2018-06-04T10:43:07.529Z,27.10
2018-06-04T10:45:35.840Z,27.10
2018-06-04T10:48:04.184Z,27.00
2018-06-04T10:50:32.488Z,27.50
2018-06-04T10:53:00.829Z,27.70
2018-06-04T10:55:29.161Z,27.80
2018-06-04T10:57:57.460Z,27.80
2018-06-04T11:00:25.789Z,27.60
2018-06-04T11:02:54.140Z,27.80
2018-06-04T11:05:22.453Z,28.10
2018-06-04T11:07:50.772Z,28.20
2018-06-04T11:10:19.088Z,28.50
2018-06-04T11:12:47.423Z,28.20
2018-06-04T11:15:15.752Z,27.60
2018-06-04T11:17:44.033Z,27.00
2018-06-04T11:20:12.380Z,27.10
2018-06-04T11:22:40.704Z,27.40
2018-06-04T11:25:09.036Z,28.10
2018-06-04T11:27:37.348Z,27.50
2018-06-04T11:30:05.721Z,27.00
2018-06-04T11:32:34.040Z,26.50
2018-06-04T11:35:03.341Z,26.20
2018-06-04T11:37:31.692Z,25.90
2018-06-04T11:39:59.932Z,25.90
2018-06-04T11:42:28.240Z,25.80
2018-06-04T11:44:56.725Z,25.70
2018-06-04T11:47:25.074Z,26.00
2018-06-04T11:49:53.372Z,26.70
2018-06-04T11:52:21.704Z,27.40
2018-06-04T11:54:50.012Z,28.10
2018-06-04T11:57:18.332Z,28.00
2018-06-04T11:59:46.621Z,28.10
2018-06-04T12:02:14.917Z,28.90
2018-06-04T12:04:43.248Z,28.70
2018-06-04T12:07:12.108Z,28.10
2018-06-04T12:09:40.400Z,28.70
2018-06-04T12:12:08.703Z,28.90
2018-06-04T12:14:38.124Z,29.50
2018-06-04T12:17:06.417Z,29.70
2018-06-04T12:19:34.786Z,29.50
2018-06-04T12:22:03.088Z,30.00
2018-06-04T12:24:31.400Z,29.40
2018-06-04T12:26:59.712Z,29.60
2018-06-04T12:29:28.020Z,29.70
2018-06-04T12:31:56.319Z,29.30
2018-06-04T12:34:24.652Z,28.80
2018-06-04T12:36:53.025Z,28.90
2018-06-04T12:39:21.328Z,29.10
2018-06-04T12:41:49.661Z,28.90
2018-06-04T12:44:19.056Z,28.90
2018-06-04T12:46:47.407Z,29.30
2018-06-04T12:49:16.513Z,29.90
2018-06-04T12:51:44.953Z,29.60
2018-06-04T12:54:13.307Z,29.60
2018-06-04T12:56:41.904Z,30.00
2018-06-04T12:59:10.245Z,30.40
2018-06-04T13:01:38.544Z,31.00
2018-06-04T13:04:06.847Z,30.90
2018-06-04T13:06:35.151Z,31.00
2018-06-04T13:09:04.655Z,31.00
2018-06-04T13:11:33.067Z,31.20
2018-06-04T13:14:01.380Z,31.00
2018-06-04T13:16:29.704Z,31.00
2018-06-04T13:18:58.016Z,30.70
2018-06-04T13:21:26.372Z,30.30
2018-06-04T13:23:55.083Z,30.20
2018-06-04T13:26:23.380Z,30.70
2018-06-04T13:28:51.698Z,30.70
2018-06-04T13:31:19.999Z,31.30
2018-06-04T13:33:48.954Z,31.30
2018-06-04T13:36:17.267Z,30.50
2018-06-04T13:38:45.585Z,29.90
2018-06-04T13:41:14.188Z,29.70
2018-06-04T13:43:42.516Z,29.90
2018-06-04T13:46:10.823Z,30.30
2018-06-04T13:48:39.133Z,31.40
2018-06-04T13:51:07.467Z,32.30
2018-06-04T13:53:35.790Z,31.50
2018-06-04T13:56:04.106Z,31.40
2018-06-04T13:58:32.403Z,31.80
2018-06-04T14:01:00.761Z,30.90
2018-06-04T14:03:29.066Z,29.40
2018-06-04T14:05:57.407Z,29.60
2018-06-04T14:08:25.720Z,30.10
2018-06-04T14:10:54.023Z,30.80
2018-06-04T14:13:22.349Z,30.40
2018-06-04T14:15:50.664Z,30.70
2018-06-04T14:18:18.975Z,31.80
2018-06-04T14:20:47.277Z,30.80
2018-06-04T14:23:15.631Z,30.50
2018-06-04T14:25:44.036Z,30.70
2018-06-04T14:28:12.385Z,31.50
2018-06-04T14:30:40.847Z,32.20
2018-06-04T14:33:09.241Z,32.20
2018-06-04T14:35:37.592Z,31.60
2018-06-04T14:38:05.924Z,32.20
2018-06-04T14:40:34.448Z,32.20
2018-06-04T14:43:02.756Z,31.50
2018-06-04T14:45:31.091Z,31.30
2018-06-04T14:47:59.586Z,30.50
2018-06-04T14:50:27.956Z,30.00
2018-06-04T14:52:56.272Z,30.40
2018-06-04T14:55:24.608Z,31.10
2018-06-04T14:57:53.004Z,31.60
2018-06-04T15:00:21.296Z,31.20
2018-06-04T15:02:49.595Z,30.80
2018-06-04T15:05:17.924Z,31.30
2018-06-04T15:07:46.266Z,30.90
2018-06-04T15:10:14.559Z,30.50
2018-06-04T15:12:42.895Z,31.30
2018-06-04T15:15:11.245Z,31.50
2018-06-04T15:17:39.507Z,32.50
2018-06-04T15:20:07.827Z,32.30
2018-06-04T15:22:36.129Z,32.20
2018-06-04T15:25:04.976Z,31.70
2018-06-04T15:27:33.272Z,31.50
2018-06-04T15:30:01.577Z,31.10
2018-06-04T15:32:29.964Z,31.30
2018-06-04T15:34:58.355Z,31.70
2018-06-04T15:37:26.659Z,32.20
2018-06-04T15:39:55.047Z,31.90
2018-06-04T15:42:23.355Z,32.20
2018-06-04T15:44:51.655Z,32.20
2018-06-04T15:47:20.067Z,32.00
2018-06-04T15:49:48.415Z,32.30
2018-06-04T15:52:16.716Z,32.40
2018-06-04T15:54:45.032Z,33.00
2018-06-04T15:57:13.324Z,33.00
2018-06-04T15:59:41.667Z,33.00
2018-06-04T16:02:10.135Z,33.30
2018-06-04T16:04:38.503Z,33.50
2018-06-04T16:07:06.905Z,33.40
2018-06-04T16:09:35.402Z,32.40
2018-06-04T16:12:03.717Z,31.70
2018-06-04T16:14:32.004Z,31.80
2018-06-04T16:17:00.451Z,32.20
2018-06-04T16:19:28.757Z,32.40
2018-06-04T16:21:57.088Z,32.80
2018-06-04T16:24:25.384Z,32.90
2018-06-04T16:26:53.708Z,32.00
2018-06-04T16:29:22.028Z,31.10
2018-06-04T16:31:50.359Z,31.20
2018-06-04T16:34:18.675Z,30.90
2018-06-04T16:36:46.974Z,31.30
2018-06-04T16:39:15.285Z,31.10
2018-06-04T16:41:43.610Z,30.80
2018-06-04T16:44:12.384Z,30.80
2018-06-04T16:46:40.689Z,30.80
2018-06-04T16:49:09.041Z,30.40
2018-06-04T16:51:37.380Z,30.70
2018-06-04T16:54:05.686Z,30.80
2018-06-04T16:56:34.003Z,31.20
2018-06-04T16:59:02.329Z,30.70
2018-06-04T17:01:30.632Z,30.70
2018-06-04T17:04:00.200Z,30.10
2018-06-04T17:06:28.568Z,30.10
2018-06-04T17:08:56.895Z,29.90
2018-06-04T17:11:25.216Z,29.60
2018-06-04T17:13:53.540Z,29.60
2018-06-04T17:16:21.856Z,29.80
2018-06-04T17:18:50.171Z,29.50
2018-06-04T17:21:18.693Z,28.80
2018-06-04T17:23:47.046Z,28.70
2018-06-04T17:26:15.392Z,29.10
2018-06-04T17:28:44.325Z,28.50
2018-06-04T17:31:12.661Z,28.50
2018-06-04T17:33:41.016Z,28.20
2018-06-04T17:36:09.317Z,28.00
2018-06-04T17:38:37.655Z,27.80
2018-06-04T17:41:05.981Z,27.60
2018-06-04T17:43:34.308Z,27.20
2018-06-04T17:46:02.637Z,27.30
2018-06-04T17:48:30.980Z,27.30
2018-06-04T17:50:59.276Z,27.30
2018-06-04T17:53:27.572Z,27.30
2018-06-04T17:55:55.889Z,27.30
2018-06-04T17:58:24.195Z,27.00
2018-06-04T18:00:52.516Z,27.00
2018-06-04T18:03:20.815Z,26.90
2018-06-04T18:05:49.137Z,26.70
2018-06-04T18:08:17.433Z,26.40
2018-06-04T18:10:45.751Z,26.40
2018-06-04T18:13:14.069Z,26.40
2018-06-04T18:15:42.418Z,26.50
2018-06-04T18:18:10.747Z,26.30
2018-06-04T18:20:39.684Z,26.00
2018-06-04T18:23:08.203Z,25.90
2018-06-04T18:25:36.552Z,26.00
2018-06-04T18:28:13.263Z,25.70
2018-06-04T18:30:45.478Z,25.60
2018-06-04T18:33:16.890Z,25.50
2018-06-04T18:35:46.196Z,25.40
2018-06-04T18:38:16.371Z,25.30
2018-06-04T18:40:44.692Z,25.20
2018-06-04T18:43:13.285Z,25.00
2018-06-04T18:45:41.671Z,24.80
2018-06-04T18:48:10.043Z,24.80
2018-06-04T18:50:38.417Z,24.40
2018-06-04T18:53:06.948Z,24.20
2018-06-04T18:55:35.304Z,24.00
2018-06-04T18:58:03.707Z,24.10
2018-06-04T19:03:06.607Z,24.00
2018-06-04T19:05:34.929Z,23.90
2018-06-04T19:08:03.472Z,23.80
2018-06-04T19:10:31.829Z,23.70
2018-06-04T19:13:00.132Z,23.80
2018-06-04T19:15:28.480Z,23.90
2018-06-04T19:17:56.792Z,23.70
2018-06-04T19:20:25.112Z,23.40
2018-06-04T19:22:53.471Z,23.20
2018-06-04T19:25:21.806Z,23.00
2018-06-04T19:27:50.153Z,23.10
2018-06-04T19:30:18.474Z,22.70
2018-06-04T19:32:46.805Z,22.50
2018-06-04T19:35:15.100Z,22.60
2018-06-04T19:37:43.439Z,22.50
2018-06-04T19:40:11.800Z,22.20
2018-06-04T19:42:40.143Z,22.00
2018-06-04T19:45:08.463Z,21.80
2018-06-04T19:47:36.776Z,21.70
2018-06-04T19:50:05.216Z,21.50
2018-06-04T19:52:33.551Z,21.30
2018-06-04T19:55:02.364Z,21.20
2018-06-04T19:57:30.724Z,21.00
2018-06-04T19:59:59.034Z,21.00
2018-06-04T20:02:27.340Z,20.90
2018-06-04T20:04:55.880Z,20.80
2018-06-04T20:07:24.191Z,20.70
2018-06-04T20:09:52.507Z,20.50
2018-06-04T20:12:20.841Z,20.50
2018-06-04T20:14:49.560Z,20.70
2018-06-04T20:17:18.821Z,20.60
2018-06-04T20:19:47.137Z,20.60
2018-06-04T20:22:15.584Z,20.70
2018-06-04T20:24:43.891Z,20.80
2018-06-04T20:27:12.285Z,20.80
2018-06-04T20:29:40.588Z,20.80
2018-06-04T20:32:09.161Z,20.70
2018-06-04T20:34:37.471Z,20.60
2018-06-04T20:37:05.779Z,20.50
2018-06-04T20:39:34.171Z,20.50
2018-06-04T20:42:02.501Z,20.50
2018-06-04T20:44:30.805Z,20.50
2018-06-04T20:46:59.121Z,20.50
2018-06-04T20:49:27.449Z,20.50
2018-06-04T20:51:55.768Z,20.40
2018-06-04T20:54:24.096Z,20.40
2018-06-04T20:56:52.400Z,20.50
2018-06-04T20:59:20.824Z,20.50
2018-06-04T21:01:49.148Z,20.40
2018-06-04T21:04:17.467Z,20.30
2018-06-04T21:06:45.785Z,20.30
2018-06-04T21:09:14.112Z,20.10
2018-06-04T21:11:42.435Z,19.90
2018-06-04T21:14:10.813Z,19.70
2018-06-04T21:16:39.143Z,19.60
2018-06-04T21:19:07.479Z,19.30
2018-06-04T21:21:35.804Z,19.20
2018-06-04T21:24:04.252Z,19.20
2018-06-04T21:26:32.568Z,19.20
2018-06-04T21:29:00.902Z,19.20
2018-06-04T21:31:29.647Z,19.20
2018-06-04T21:33:57.935Z,19.20
2018-06-04T21:36:26.228Z,19.30
2018-06-04T21:38:54.531Z,19.40
2018-06-04T21:41:22.828Z,19.40
2018-06-04T21:43:51.134Z,19.50
2018-06-04T21:46:19.438Z,19.40
2018-06-04T21:48:48.195Z,19.40
2018-06-04T21:51:16.700Z,19.30
2018-06-04T21:53:45.016Z,19.00
2018-06-04T21:56:13.323Z,18.70
2018-06-04T21:58:41.631Z,18.40
2018-06-04T22:01:09.963Z,18.10
2018-06-04T22:03:38.271Z,17.90
2018-06-04T22:06:06.597Z,17.80
2018-06-04T22:08:34.930Z,17.80
2018-06-04T22:11:03.255Z,18.00
2018-06-04T22:13:31.551Z,18.10
2018-06-04T22:16:00.787Z,18.10
2018-06-04T22:18:29.133Z,18.10
2018-06-04T22:20:57.463Z,18.00
2018-06-04T22:23:25.777Z,17.90
2018-06-04T22:25:54.381Z,18.10
2018-06-04T22:28:22.691Z,18.00
2018-06-04T22:30:51.015Z,18.00
2018-06-04T22:33:19.356Z,17.80
2018-06-04T22:35:47.693Z,17.60
2018-06-04T22:38:16.059Z,17.30
2018-06-04T22:40:44.364Z,17.10
2018-06-04T22:43:12.675Z,17.00
2018-06-04T22:45:40.985Z,16.80
2018-06-04T22:48:09.307Z,16.60
2018-06-04T22:50:37.633Z,16.50
2018-06-04T22:53:05.939Z,16.50
2018-06-04T22:55:34.252Z,16.60
2018-06-04T22:58:02.553Z,16.70
2018-06-04T23:00:33.192Z,16.70
2018-06-04T23:03:01.789Z,16.70
2018-06-04T23:05:30.102Z,16.60
2018-06-04T23:07:58.423Z,16.50
2018-06-04T23:10:27.301Z,16.40
2018-06-04T23:12:55.635Z,16.40
2018-06-04T23:15:24.161Z,16.30
2018-06-04T23:17:52.464Z,16.30
2018-06-04T23:20:20.768Z,16.40
2018-06-04T23:22:49.125Z,16.50
2018-06-04T23:25:17.404Z,16.60
2018-06-04T23:27:45.736Z,16.60
2018-06-04T23:30:14.032Z,16.60
2018-06-04T23:32:42.361Z,16.60
2018-06-04T23:35:10.672Z,16.70
2018-06-04T23:37:39.001Z,16.70
2018-06-04T23:40:07.422Z,16.80
2018-06-04T23:42:35.732Z,16.80
2018-06-04T23:45:04.152Z,16.80
2018-06-04T23:47:32.468Z,16.70
2018-06-04T23:50:00.826Z,16.60
2018-06-04T23:52:29.124Z,16.70
2018-06-04T23:54:57.458Z,16.60
2018-06-04T23:57:25.775Z,16.50
2018-06-04T23:59:54.079Z,16.50
